createdAt,value
2022-12-16T00:02:24.730Z,24.60
2022-12-16T00:04:51.410Z,22.87
2022-12-16T00:07:18.089Z,21.87
2022-12-16T00:09:44.702Z,23.90
2022-12-16T00:12:11.311Z,25.30
2022-12-16T00:14:37.861Z,26.60
2022-12-16T00:17:04.433Z,24.60
2022-12-16T00:19:31.636Z,27.03
2022-12-16T00:21:58.330Z,26.40
2022-12-16T00:24:24.929Z,29.10
2022-12-16T00:26:52.389Z,33.23
2022-12-16T00:29:20.121Z,24.40
2022-12-16T00:31:48.175Z,20.90
2022-12-16T00:34:16.046Z,22.93
2022-12-16T00:36:43.596Z,20.47
2022-12-16T00:39:10.999Z,20.33
2022-12-16T00:41:37.833Z,18.83
2022-12-16T00:44:04.908Z,18.87
2022-12-16T00:46:31.528Z,18.60
2022-12-16T00:48:58.203Z,17.43
2022-12-16T00:51:24.812Z,17.07
2022-12-16T00:53:51.745Z,15.50
2022-12-16T00:56:18.508Z,13.67
2022-12-16T00:58:45.098Z,12.37
2022-12-16T01:01:11.967Z,13.33
2022-12-16T01:03:39.761Z,13.00
2022-12-16T01:06:15.875Z,12.43
2022-12-16T01:08:48.600Z,14.03
2022-12-16T01:11:17.646Z,12.80
2022-12-16T01:13:44.903Z,12.93
2022-12-16T01:16:11.493Z,13.53
2022-12-16T01:18:38.372Z,12.50
2022-12-16T01:21:12.011Z,12.20
2022-12-16T01:23:38.577Z,12.37
2022-12-16T01:26:06.116Z,12.17
2022-12-16T01:28:32.701Z,12.03
2022-12-16T01:31:04.000Z,12.43
2022-12-16T01:33:33.099Z,12.17
2022-12-16T01:36:06.850Z,12.27
2022-12-16T01:38:33.494Z,12.70
2022-12-16T01:41:00.332Z,12.53
2022-12-16T01:43:33.787Z,10.87
2022-12-16T01:46:05.790Z,12.10
2022-12-16T01:48:39.594Z,12.03
2022-12-16T01:51:12.006Z,10.50
2022-12-16T01:53:42.487Z,9.57
2022-12-16T01:56:12.705Z,9.83
2022-12-16T01:58:41.193Z,10.30
2022-12-16T02:01:07.967Z,10.13
2022-12-16T02:03:36.876Z,10.67
2022-12-16T02:06:06.166Z,10.07
2022-12-16T02:08:32.963Z,10.63
2022-12-16T02:11:18.373Z,9.77
2022-12-16T02:14:00.052Z,10.00
2022-12-16T02:17:06.785Z,9.97
2022-12-16T02:20:06.273Z,9.90
2022-12-16T02:22:51.608Z,9.30
2022-12-16T02:25:21.333Z,10.23
2022-12-16T02:28:10.170Z,9.67
2022-12-16T02:31:19.931Z,10.40
2022-12-16T02:34:05.255Z,10.37
2022-12-16T02:36:45.275Z,9.87
2022-12-16T02:39:39.607Z,10.10
2022-12-16T02:42:42.267Z,9.63
2022-12-16T02:45:21.756Z,9.57
2022-12-16T02:47:48.750Z,10.13
2022-12-16T02:50:26.116Z,8.97
2022-12-16T02:52:55.395Z,9.03
2022-12-16T02:55:32.810Z,9.27
2022-12-16T02:58:29.183Z,9.93
2022-12-16T03:01:07.729Z,9.10
2022-12-16T03:03:58.333Z,9.67
2022-12-16T03:06:27.385Z,9.40
2022-12-16T03:08:57.818Z,9.93
2022-12-16T03:11:28.374Z,9.20
2022-12-16T03:13:56.966Z,9.67
2022-12-16T03:16:27.822Z,9.83
2022-12-16T03:18:59.547Z,9.30
2022-12-16T03:21:31.677Z,9.33
2022-12-16T03:24:01.942Z,9.00
2022-12-16T03:26:34.571Z,8.60
2022-12-16T03:29:09.222Z,8.87
2022-12-16T03:31:58.329Z,9.73
2022-12-16T03:34:36.811Z,9.17
2022-12-16T03:37:07.440Z,8.87
2022-12-16T03:39:39.647Z,8.77
2022-12-16T03:42:06.986Z,8.40
2022-12-16T03:44:35.938Z,9.53
2022-12-16T03:47:02.566Z,8.80
2022-12-16T03:49:29.378Z,9.07
2022-12-16T03:51:56.457Z,9.83
2022-12-16T03:54:24.249Z,8.70
2022-12-16T03:56:50.824Z,8.43
2022-12-16T03:59:17.628Z,8.57
2022-12-16T04:01:44.420Z,8.83
2022-12-16T04:04:11.250Z,8.10
2022-12-16T04:06:37.847Z,7.50
2022-12-16T04:09:04.454Z,8.50
2022-12-16T04:11:49.858Z,7.60
2022-12-16T04:14:35.190Z,9.33
2022-12-16T04:17:20.356Z,9.77
2022-12-16T04:20:06.634Z,11.57
2022-12-16T04:22:58.480Z,8.87
2022-12-16T04:25:29.924Z,9.00
2022-12-16T04:27:58.684Z,9.93
2022-12-16T04:30:28.049Z,10.40
2022-12-16T04:33:23.846Z,11.10
2022-12-16T04:36:09.014Z,10.87
2022-12-16T04:38:55.100Z,9.67
2022-12-16T04:41:40.090Z,10.23
2022-12-16T04:44:25.252Z,8.53
2022-12-16T04:47:10.753Z,8.70
2022-12-16T04:49:55.821Z,8.53
2022-12-16T04:52:41.053Z,8.20
2022-12-16T04:55:26.966Z,8.53
2022-12-16T04:58:18.002Z,8.23
2022-12-16T05:01:04.672Z,7.40
2022-12-16T05:03:49.946Z,8.50
2022-12-16T05:06:35.664Z,8.17
2022-12-16T05:09:22.054Z,7.20
2022-12-16T05:12:07.390Z,6.40
2022-12-16T05:14:52.759Z,7.13
2022-12-16T05:17:38.636Z,6.07
2022-12-16T05:20:24.789Z,5.27
2022-12-16T05:23:10.079Z,6.07
2022-12-16T05:25:55.372Z,5.10
2022-12-16T05:28:40.517Z,4.47
2022-12-16T05:31:25.783Z,5.70
2022-12-16T05:34:11.103Z,5.17
2022-12-16T05:36:56.283Z,4.80
2022-12-16T05:39:41.610Z,5.17
2022-12-16T05:42:26.587Z,5.30
2022-12-16T05:45:11.823Z,5.70
2022-12-16T05:47:58.572Z,5.10
2022-12-16T05:50:43.734Z,5.53
2022-12-16T05:53:29.584Z,4.53
2022-12-16T05:56:15.135Z,5.30
2022-12-16T05:59:00.469Z,5.70
2022-12-16T06:01:45.686Z,6.20
2022-12-16T06:04:31.203Z,5.57
2022-12-16T06:07:16.369Z,6.03
2022-12-16T06:10:01.362Z,5.40
2022-12-16T06:12:46.669Z,5.93
2022-12-16T06:15:31.734Z,6.10
2022-12-16T06:18:17.073Z,6.90
2022-12-16T06:21:02.814Z,6.30
2022-12-16T06:23:48.205Z,6.27
2022-12-16T06:26:33.341Z,6.37
2022-12-16T06:29:18.641Z,6.80
2022-12-16T06:32:03.890Z,6.80
2022-12-16T06:34:49.024Z,6.60
2022-12-16T06:37:34.422Z,6.10
2022-12-16T06:40:19.318Z,6.67
2022-12-16T06:43:04.631Z,6.37
2022-12-16T06:45:49.888Z,6.63
2022-12-16T06:48:35.061Z,6.90
2022-12-16T06:51:20.307Z,6.43
2022-12-16T06:54:05.528Z,6.60
2022-12-16T06:56:50.573Z,6.47
2022-12-16T06:59:35.752Z,7.57
2022-12-16T07:02:20.989Z,6.97
2022-12-16T07:05:06.680Z,7.47
2022-12-16T07:07:52.435Z,6.47
2022-12-16T07:10:37.461Z,7.20
2022-12-16T07:13:22.568Z,6.93
2022-12-16T07:16:07.620Z,6.80
2022-12-16T07:18:53.025Z,6.93
2022-12-16T07:21:38.465Z,7.20
2022-12-16T07:24:23.933Z,6.87
2022-12-16T07:27:08.931Z,7.33
2022-12-16T07:29:54.185Z,7.47
2022-12-16T07:32:39.373Z,6.57
2022-12-16T07:35:24.573Z,6.93
2022-12-16T07:38:09.902Z,7.63
2022-12-16T07:40:55.034Z,6.40
2022-12-16T07:43:40.229Z,6.70
2022-12-16T07:46:25.732Z,6.93
2022-12-16T07:49:10.913Z,8.00
2022-12-16T07:51:56.054Z,6.57
2022-12-16T07:54:48.806Z,7.13
2022-12-16T07:57:33.752Z,6.60
2022-12-16T08:00:18.894Z,6.23
2022-12-16T08:03:04.102Z,6.67
2022-12-16T08:05:49.337Z,6.53
2022-12-16T08:08:34.238Z,8.87
2022-12-16T08:11:19.504Z,10.13
2022-12-16T08:14:04.567Z,10.93
2022-12-16T08:16:49.985Z,11.70
2022-12-16T08:19:35.333Z,10.93
2022-12-16T08:22:20.638Z,10.50
2022-12-16T08:25:06.023Z,10.30
2022-12-16T08:27:51.189Z,10.03
2022-12-16T08:30:36.488Z,8.70
2022-12-16T08:33:22.679Z,9.13
2022-12-16T08:36:07.919Z,8.93
2022-12-16T08:38:53.658Z,9.93
2022-12-16T08:41:41.157Z,9.00
2022-12-16T08:44:26.509Z,8.93
2022-12-16T08:47:11.754Z,8.80
2022-12-16T08:49:59.843Z,9.13
2022-12-16T08:52:47.766Z,9.30
2022-12-16T08:55:33.226Z,10.67
2022-12-16T08:58:18.390Z,9.27
2022-12-16T09:01:07.402Z,9.00
2022-12-16T09:03:54.081Z,10.27
2022-12-16T09:06:40.987Z,10.17
2022-12-16T09:09:27.803Z,10.07
2022-12-16T09:12:13.087Z,10.33
2022-12-16T09:14:58.380Z,10.53
2022-12-16T09:17:43.776Z,10.33
2022-12-16T09:20:29.484Z,9.00
2022-12-16T09:23:14.746Z,8.73
2022-12-16T09:25:59.911Z,9.60
2022-12-16T09:28:45.110Z,9.20
2022-12-16T09:31:30.509Z,7.70
2022-12-16T09:34:15.883Z,8.07
2022-12-16T09:37:01.109Z,8.43
2022-12-16T09:39:46.301Z,8.57
2022-12-16T09:42:37.644Z,7.10
2022-12-16T09:45:31.313Z,6.03
2022-12-16T09:48:30.737Z,6.40
2022-12-16T09:51:21.049Z,5.87
2022-12-16T09:54:08.845Z,6.77
2022-12-16T09:56:55.525Z,6.53
2022-12-16T09:59:48.372Z,8.10
2022-12-16T10:02:36.271Z,8.30
2022-12-16T10:05:22.281Z,9.23
2022-12-16T10:08:19.138Z,11.23
2022-12-16T10:11:22.871Z,10.73
2022-12-16T10:14:19.722Z,10.47
2022-12-16T10:17:24.942Z,11.20
2022-12-16T10:20:25.083Z,10.73
2022-12-16T10:23:28.890Z,10.47
2022-12-16T10:26:20.490Z,11.23
2022-12-16T10:29:17.217Z,11.67
2022-12-16T10:32:02.375Z,11.13
2022-12-16T10:34:49.553Z,11.47
2022-12-16T10:37:40.547Z,10.97
2022-12-16T10:40:32.965Z,11.43
2022-12-16T10:43:23.781Z,13.73
2022-12-16T10:46:12.596Z,11.97
2022-12-16T10:48:57.951Z,12.67
2022-12-16T10:51:46.369Z,13.40
2022-12-16T10:54:50.659Z,13.57
2022-12-16T10:57:53.534Z,14.17
2022-12-16T11:00:56.421Z,12.37
2022-12-16T11:03:50.905Z,11.83
2022-12-16T11:06:57.827Z,11.50
2022-12-16T11:09:47.682Z,11.47
2022-12-16T11:12:43.618Z,10.70
2022-12-16T11:15:42.182Z,11.30
2022-12-16T11:18:40.672Z,12.37
2022-12-16T11:21:38.010Z,14.40
2022-12-16T11:24:26.033Z,14.00
2022-12-16T11:27:18.245Z,11.63
2022-12-16T11:30:19.948Z,10.47
2022-12-16T11:33:17.778Z,15.27
2022-12-16T11:36:14.209Z,10.77
2022-12-16T11:39:03.866Z,5.43
2022-12-16T11:41:57.025Z,8.43
2022-12-16T11:44:52.071Z,7.90
2022-12-16T11:47:59.068Z,8.33
2022-12-16T11:50:47.420Z,9.30
2022-12-16T11:53:41.277Z,10.83
2022-12-16T11:56:33.904Z,11.30
2022-12-16T11:59:28.387Z,10.70
2022-12-16T12:02:20.882Z,11.27
2022-12-16T12:05:08.851Z,10.73
2022-12-16T12:08:09.825Z,8.43
2022-12-16T12:11:24.511Z,6.67
2022-12-16T12:14:19.013Z,9.10
2022-12-16T12:17:23.335Z,8.33
2022-12-16T12:20:24.288Z,9.17
2022-12-16T12:23:09.602Z,8.70
2022-12-16T12:26:01.049Z,9.03
2022-12-16T12:29:09.246Z,9.77
2022-12-16T12:32:18.785Z,7.70
2022-12-16T12:35:27.581Z,6.73
2022-12-16T12:38:45.605Z,8.13
2022-12-16T12:41:38.333Z,7.40
2022-12-16T12:44:48.618Z,8.10
2022-12-16T12:47:36.404Z,6.40
2022-12-16T12:50:27.193Z,6.83
2022-12-16T12:53:43.400Z,6.80
2022-12-16T12:56:43.873Z,7.10
2022-12-16T12:59:41.254Z,6.87
2022-12-16T13:02:33.757Z,8.17
2022-12-16T13:05:24.394Z,5.97
2022-12-16T13:08:10.356Z,7.50
2022-12-16T13:10:58.733Z,7.77
2022-12-16T13:13:52.267Z,7.43
2022-12-16T13:17:03.733Z,6.90
2022-12-16T13:19:48.995Z,6.20
2022-12-16T13:22:55.938Z,7.80
2022-12-16T13:26:10.952Z,8.73
2022-12-16T13:28:59.771Z,8.70
2022-12-16T13:31:47.518Z,8.23
2022-12-16T13:34:32.926Z,8.80
2022-12-16T13:37:28.314Z,8.57
2022-12-16T13:40:25.344Z,8.10
2022-12-16T13:43:12.615Z,7.93
2022-12-16T13:46:25.277Z,7.90
2022-12-16T13:49:10.443Z,8.50
2022-12-16T13:51:55.776Z,8.83
2022-12-16T13:54:49.595Z,9.20
2022-12-16T13:57:38.010Z,9.20
2022-12-16T14:00:36.584Z,8.50
2022-12-16T14:03:28.924Z,8.80
2022-12-16T14:06:14.219Z,9.47
2022-12-16T14:08:59.895Z,11.60
2022-12-16T14:12:09.854Z,9.67
2022-12-16T14:15:04.568Z,9.40
2022-12-16T14:18:04.498Z,9.17
2022-12-16T14:21:07.939Z,8.90
2022-12-16T14:24:07.537Z,9.20
2022-12-16T14:26:57.140Z,11.97
2022-12-16T14:29:46.331Z,9.20
2022-12-16T14:32:37.931Z,9.07
2022-12-16T14:35:31.252Z,8.47
2022-12-16T14:38:16.954Z,7.90
2022-12-16T14:41:17.889Z,9.57
2022-12-16T14:44:03.016Z,10.60
2022-12-16T14:46:50.452Z,9.50
2022-12-16T14:49:42.260Z,8.77
2022-12-16T14:52:44.882Z,15.47
2022-12-16T14:55:47.973Z,15.83
2022-12-16T14:58:34.937Z,21.20
2022-12-16T15:01:42.750Z,18.57
2022-12-16T15:04:36.098Z,10.90
2022-12-16T15:07:30.837Z,12.23
2022-12-16T15:10:18.259Z,18.23
2022-12-16T15:13:06.697Z,21.27
2022-12-16T15:15:57.295Z,40.13
2022-12-16T15:18:57.125Z,13.80
2022-12-16T15:21:43.029Z,10.67
2022-12-16T15:24:34.489Z,10.13
2022-12-16T15:27:54.865Z,9.93
2022-12-16T15:30:52.143Z,7.97
2022-12-16T15:33:40.450Z,9.07
2022-12-16T15:36:41.070Z,8.33
2022-12-16T15:39:37.203Z,8.77
2022-12-16T15:42:22.875Z,9.73
2022-12-16T15:45:10.898Z,9.07
2022-12-16T15:47:57.113Z,8.17
2022-12-16T15:50:45.889Z,9.10
2022-12-16T15:53:51.243Z,8.10
2022-12-16T15:56:42.669Z,8.33
2022-12-16T15:59:44.955Z,8.47
2022-12-16T16:02:38.483Z,8.90
2022-12-16T16:05:43.286Z,9.03
2022-12-16T16:08:29.995Z,9.33
2022-12-16T16:11:15.243Z,9.57
2022-12-16T16:14:06.135Z,9.83
2022-12-16T16:16:52.779Z,10.20
2022-12-16T16:19:44.844Z,8.80
2022-12-16T16:22:36.481Z,9.40
2022-12-16T16:25:22.667Z,11.23
2022-12-16T16:28:08.947Z,9.63
2022-12-16T16:30:55.205Z,8.13
2022-12-16T16:33:40.477Z,10.00
2022-12-16T16:36:33.305Z,9.20
2022-12-16T16:39:19.096Z,7.63
2022-12-16T16:42:05.165Z,7.83
2022-12-16T16:44:50.404Z,7.00
2022-12-16T16:47:36.585Z,7.30
2022-12-16T16:50:25.814Z,7.33
2022-12-16T16:53:11.397Z,7.60
2022-12-16T16:55:58.632Z,8.63
2022-12-16T16:58:47.581Z,8.30
2022-12-16T17:01:36.293Z,8.00
2022-12-16T17:04:22.276Z,7.27
2022-12-16T17:07:08.093Z,8.40
2022-12-16T17:09:53.488Z,8.20
2022-12-16T17:12:44.972Z,8.83
2022-12-16T17:15:38.694Z,9.83
2022-12-16T17:18:25.182Z,8.67
2022-12-16T17:21:10.924Z,9.27
2022-12-16T17:23:56.674Z,9.83
2022-12-16T17:26:42.463Z,9.57
2022-12-16T17:29:37.765Z,8.43
2022-12-16T17:32:22.989Z,8.83
2022-12-16T17:35:08.141Z,8.40
2022-12-16T17:37:53.324Z,9.40
2022-12-16T17:40:38.614Z,8.87
2022-12-16T17:43:23.823Z,9.13
2022-12-16T17:46:21.749Z,9.30
2022-12-16T17:49:12.596Z,9.23
2022-12-16T17:51:59.049Z,8.57
2022-12-16T17:54:45.056Z,9.10
2022-12-16T17:57:30.928Z,9.03
2022-12-16T18:00:16.443Z,9.37
2022-12-16T18:03:01.705Z,9.67
2022-12-16T18:05:47.603Z,9.27
2022-12-16T18:08:32.425Z,9.80
2022-12-16T18:11:18.235Z,9.80
2022-12-16T18:14:03.494Z,10.20
2022-12-16T18:16:49.320Z,10.70
2022-12-16T18:19:35.157Z,9.77
2022-12-16T18:22:20.753Z,10.00
2022-12-16T18:25:06.567Z,10.70
2022-12-16T18:27:53.869Z,10.50
2022-12-16T18:30:39.523Z,9.70
2022-12-16T18:33:24.815Z,10.43
2022-12-16T18:36:10.021Z,11.40
2022-12-16T18:38:55.296Z,10.07
2022-12-16T18:41:41.187Z,10.17
2022-12-16T18:44:30.847Z,9.50
2022-12-16T18:47:15.995Z,9.80
2022-12-16T18:50:01.234Z,10.43
2022-12-16T18:52:46.841Z,9.40
2022-12-16T18:55:32.138Z,9.60
2022-12-16T18:58:42.824Z,9.10
2022-12-16T19:01:25.555Z,9.13
2022-12-16T19:04:11.159Z,9.10
2022-12-16T19:06:56.970Z,9.13
2022-12-16T19:09:42.056Z,9.10
2022-12-16T19:12:27.326Z,9.50
2022-12-16T19:15:12.520Z,13.23
2022-12-16T19:17:57.681Z,15.10
2022-12-16T19:20:57.634Z,13.57
2022-12-16T19:23:42.714Z,13.43
2022-12-16T19:26:28.203Z,12.23
2022-12-16T19:29:13.495Z,16.77
2022-12-16T19:31:58.898Z,16.40
2022-12-16T19:34:44.700Z,13.70
2022-12-16T19:37:29.873Z,15.43
2022-12-16T19:40:15.124Z,12.30
2022-12-16T19:43:00.054Z,13.13
2022-12-16T19:45:45.298Z,11.37
2022-12-16T19:48:30.445Z,11.43
2022-12-16T19:51:20.828Z,10.80
2022-12-16T19:54:06.631Z,12.57
2022-12-16T19:56:52.758Z,11.77
2022-12-16T19:59:41.033Z,10.47
2022-12-16T20:02:30.602Z,9.73
2022-12-16T20:05:16.401Z,10.27
2022-12-16T20:08:01.524Z,9.60
2022-12-16T20:10:46.731Z,9.20
2022-12-16T20:13:31.864Z,9.50
2022-12-16T20:16:32.738Z,10.00
2022-12-16T20:19:18.543Z,9.40
2022-12-16T20:25:09.806Z,10.90
2022-12-16T20:27:55.287Z,10.87
2022-12-16T20:30:41.821Z,11.03
2022-12-16T20:33:36.583Z,11.73
2022-12-16T20:36:24.478Z,11.67
2022-12-16T20:39:10.112Z,27.63
2022-12-16T20:41:55.958Z,18.43
2022-12-16T20:44:42.107Z,28.23
2022-12-16T20:47:27.460Z,31.67
2022-12-16T20:50:13.147Z,33.53
2022-12-16T20:52:58.621Z,29.80
2022-12-16T20:55:44.019Z,27.70
2022-12-16T20:58:29.104Z,27.93
2022-12-16T21:01:14.912Z,24.67
2022-12-16T21:03:59.913Z,23.30
2022-12-16T21:06:45.171Z,16.80
2022-12-16T21:09:30.343Z,19.53
2022-12-16T21:12:15.788Z,24.13
2022-12-16T21:15:00.973Z,25.03
2022-12-16T21:17:46.241Z,25.97
2022-12-16T21:20:31.509Z,23.33
2022-12-16T21:23:21.511Z,18.20
2022-12-16T21:26:06.789Z,20.23
2022-12-16T21:28:52.083Z,17.53
2022-12-16T21:31:37.766Z,27.00
2022-12-16T21:34:23.031Z,32.07
2022-12-16T21:37:11.247Z,32.80
2022-12-16T21:39:56.586Z,27.37
2022-12-16T21:42:44.128Z,23.73
2022-12-16T21:45:30.383Z,32.27
2022-12-16T21:48:15.576Z,37.07
2022-12-16T21:51:00.970Z,28.73
2022-12-16T21:53:46.600Z,34.47
2022-12-16T21:56:32.175Z,32.33
2022-12-16T21:59:17.403Z,31.73
2022-12-16T22:02:02.903Z,33.03
2022-12-16T22:04:48.185Z,33.47
2022-12-16T22:07:33.401Z,33.60
2022-12-16T22:10:18.702Z,32.43
2022-12-16T22:13:03.854Z,32.73
2022-12-16T22:15:49.122Z,35.30
2022-12-16T22:18:35.833Z,29.53
2022-12-16T22:21:23.537Z,27.73
2022-12-16T22:24:09.257Z,24.03
2022-12-16T22:26:54.458Z,21.73
2022-12-16T22:29:41.626Z,23.47
2022-12-16T22:32:26.950Z,20.83
2022-12-16T22:35:12.104Z,27.50
2022-12-16T22:37:57.131Z,25.13
2022-12-16T22:40:42.719Z,32.73
2022-12-16T22:43:28.026Z,21.23
2022-12-16T22:46:18.424Z,22.87
2022-12-16T22:49:05.769Z,22.90
2022-12-16T22:51:51.419Z,19.33
2022-12-16T22:54:36.827Z,19.30
2022-12-16T22:57:21.943Z,24.83
2022-12-16T23:00:07.199Z,19.20
2022-12-16T23:02:52.566Z,16.50
2022-12-16T23:05:39.030Z,17.47
2022-12-16T23:08:24.346Z,19.83
2022-12-16T23:11:17.551Z,15.03
2022-12-16T23:14:03.346Z,15.37
2022-12-16T23:16:48.576Z,16.23
2022-12-16T23:19:33.681Z,16.07
2022-12-16T23:22:18.815Z,14.57
2022-12-16T23:25:03.970Z,15.37
2022-12-16T23:27:49.126Z,18.20
2022-12-16T23:30:44.900Z,15.40
2022-12-16T23:33:30.030Z,17.57
2022-12-16T23:36:15.333Z,18.00
2022-12-16T23:39:00.505Z,18.67
2022-12-16T23:41:45.845Z,17.60
2022-12-16T23:44:30.980Z,17.43
2022-12-16T23:47:16.291Z,19.60
2022-12-16T23:50:01.496Z,17.47
2022-12-16T23:52:46.682Z,18.30
2022-12-16T23:55:31.902Z,15.50
2022-12-16T23:58:18.563Z,16.60
